<?xml version="1.0" encoding="UTF-8" standalone="no" ?>
<gpx xmlns="http://www.topografix.com/GPX/1/1" xmlns:xsi="http://www.w3.org/2001/XMLSchema-instance" xsi:schemaLocation="http://www.topografix.com/GPX/1/1 http://www.topografix.com/GPX/1/1/gpx.xsd" version="1.1" creator="VisuGPX - https://www.visugpx.com">
  <metadata>
    <name>Argentina</name>
    <desc><![CDATA[Downloaded from eMap Software Version 2.75]]></desc>
  </metadata>
  <trk>
    <name><![CDATA[Argentina_47]]></name>
    <extensions>
      <line xmlns="http://www.topografix.com/GPX/gpx_style/0/2">
        <color>ff0000</color>
        <opacity>0.78</opacity>
        <width>0.6000</width>
      </line>
    </extensions>
    <trkseg>
      <trkpt lat="-27.41919" lon="-61.46715">
        <ele>96.749878</ele>
        <time>2005-12-12T21:46:09Z</time>
      </trkpt>
      <trkpt lat="-27.41801" lon="-61.46587">
        <ele>96.749878</ele>
        <time>2005-12-12T21:46:16Z</time>
      </trkpt>
      <trkpt lat="-27.41634" lon="-61.46357">
        <ele>91.462524</ele>
        <time>2005-12-12T21:46:27Z</time>
      </trkpt>
      <trkpt lat="-27.4158" lon="-61.46267">
        <ele>90.981934</ele>
        <time>2005-12-12T21:46:31Z</time>
      </trkpt>
      <trkpt lat="-27.41426" lon="-61.4578">
        <ele>98.672485</ele>
        <time>2005-12-12T21:46:50Z</time>
      </trkpt>
      <trkpt lat="-27.41091" lon="-61.44804">
        <ele>99.153076</ele>
        <time>2005-12-12T21:47:29Z</time>
      </trkpt>
      <trkpt lat="-27.40763" lon="-61.43847">
        <ele>100.595093</ele>
        <time>2005-12-12T21:48:07Z</time>
      </trkpt>
      <trkpt lat="-27.40396" lon="-61.42765">
        <ele>100.114502</ele>
        <time>2005-12-12T21:48:50Z</time>
      </trkpt>
      <trkpt lat="-27.40183" lon="-61.42143">
        <ele>97.711182</ele>
        <time>2005-12-12T21:49:15Z</time>
      </trkpt>
      <trkpt lat="-27.39939" lon="-61.41428">
        <ele>94.827148</ele>
        <time>2005-12-12T21:49:44Z</time>
      </trkpt>
      <trkpt lat="-27.39887" lon="-61.41274">
        <ele>95.307739</ele>
        <time>2005-12-12T21:49:52Z</time>
      </trkpt>
      <trkpt lat="-27.39782" lon="-61.40952">
        <ele>91.462524</ele>
        <time>2005-12-12T21:50:07Z</time>
      </trkpt>
      <trkpt lat="-27.39636" lon="-61.40536">
        <ele>90.501343</ele>
        <time>2005-12-12T21:50:24Z</time>
      </trkpt>
      <trkpt lat="-27.39424" lon="-61.39907">
        <ele>90.501343</ele>
        <time>2005-12-12T21:50:49Z</time>
      </trkpt>
      <trkpt lat="-27.39196" lon="-61.39246">
        <ele>90.501343</ele>
        <time>2005-12-12T21:51:16Z</time>
      </trkpt>
      <trkpt lat="-27.38982" lon="-61.38607">
        <ele>90.02063</ele>
        <time>2005-12-12T21:51:42Z</time>
      </trkpt>
      <trkpt lat="-27.38709" lon="-61.37798">
        <ele>88.578735</ele>
        <time>2005-12-12T21:52:14Z</time>
      </trkpt>
      <trkpt lat="-27.38445" lon="-61.37017">
        <ele>85.69458</ele>
        <time>2005-12-12T21:52:45Z</time>
      </trkpt>
      <trkpt lat="-27.3807" lon="-61.35912">
        <ele>82.330078</ele>
        <time>2005-12-12T21:53:29Z</time>
      </trkpt>
      <trkpt lat="-27.37784" lon="-61.35068">
        <ele>81.849365</ele>
        <time>2005-12-12T21:54:03Z</time>
      </trkpt>
    </trkseg>
  </trk>
</gpx>